createdAt,value
2023-05-20T00:01:41.076Z,100547.91
2023-05-20T00:04:08.018Z,100536.31
2023-05-20T00:06:34.850Z,100526.44
2023-05-20T00:09:01.497Z,100529.22
2023-05-20T00:11:28.180Z,100525.41
2023-05-20T00:13:54.797Z,100527.75
2023-05-20T00:16:21.522Z,100519.00
2023-05-20T00:18:48.232Z,100513.84
2023-05-20T00:21:14.947Z,100513.03
2023-05-20T00:23:41.690Z,100514.09
2023-05-20T00:26:08.404Z,100514.03
2023-05-20T00:28:35.358Z,100508.53
2023-05-20T00:31:02.058Z,100504.44
2023-05-20T00:33:28.743Z,100506.47
2023-05-20T00:35:55.483Z,100496.22
2023-05-20T00:38:22.110Z,100503.69
2023-05-20T00:40:48.819Z,100500.19
2023-05-20T00:43:15.449Z,100501.91
2023-05-20T00:45:42.336Z,100511.66
2023-05-20T00:48:09.132Z,100504.63
2023-05-20T00:50:36.036Z,100509.31
2023-05-20T00:53:03.604Z,100508.56
2023-05-20T00:55:30.412Z,100510.31
2023-05-20T00:57:57.328Z,100512.56
2023-05-20T01:00:23.978Z,100514.94
2023-05-20T01:02:50.949Z,100517.94
2023-05-20T01:05:17.927Z,100506.78
2023-05-20T01:07:44.780Z,100510.47
2023-05-20T01:10:11.799Z,100509.38
2023-05-20T01:12:39.567Z,100509.09
2023-05-20T01:15:09.669Z,100512.84
2023-05-20T01:17:43.460Z,100511.84
2023-05-20T01:20:11.699Z,100514.72
2023-05-20T01:22:41.006Z,100508.06
2023-05-20T01:25:08.014Z,100512.53
2023-05-20T01:27:37.673Z,100515.63
2023-05-20T01:30:04.910Z,100515.84
2023-05-20T01:32:52.969Z,100507.53
2023-05-20T01:35:21.259Z,100508.91
2023-05-20T01:37:48.759Z,100507.28
2023-05-20T01:40:16.651Z,100512.72
2023-05-20T01:42:46.721Z,100520.34
2023-05-20T01:45:13.385Z,100525.03
2023-05-20T01:47:40.233Z,100534.09
2023-05-20T01:50:07.536Z,100539.81
2023-05-20T01:52:34.190Z,100536.44
2023-05-20T01:55:00.910Z,100529.34
2023-05-20T01:57:27.581Z,100535.16
2023-05-20T01:59:54.342Z,100540.97
2023-05-20T02:02:21.047Z,100534.88
2023-05-20T02:04:50.344Z,100533.47
2023-05-20T02:07:18.379Z,100535.75
2023-05-20T02:09:45.132Z,100543.41
2023-05-20T02:12:11.927Z,100543.53
2023-05-20T02:14:38.658Z,100544.09
2023-05-20T02:17:05.363Z,100544.19
2023-05-20T02:19:32.024Z,100544.66
2023-05-20T02:21:58.772Z,100544.28
2023-05-20T02:24:27.809Z,100555.94
2023-05-20T02:26:54.494Z,100559.41
2023-05-20T02:29:21.146Z,100548.03
2023-05-20T02:31:48.314Z,100541.84
2023-05-20T02:34:17.386Z,100546.72
2023-05-20T02:36:44.200Z,100540.59
2023-05-20T02:39:10.814Z,100529.47
2023-05-20T02:41:37.624Z,100539.00
2023-05-20T02:44:04.573Z,100530.38
2023-05-20T02:46:31.897Z,100529.00
2023-05-20T02:48:58.578Z,100524.16
2023-05-20T02:51:25.670Z,100532.69
2023-05-20T02:53:54.914Z,100537.41
2023-05-20T02:56:21.601Z,100537.31
2023-05-20T02:58:48.567Z,100532.25
2023-05-20T03:01:15.314Z,100537.66
2023-05-20T03:03:42.389Z,100537.31
2023-05-20T03:06:09.060Z,100537.06
2023-05-20T03:08:35.746Z,100538.75
2023-05-20T03:11:04.805Z,100545.75
2023-05-20T03:13:32.091Z,100545.66
2023-05-20T03:15:58.893Z,100550.22
2023-05-20T03:18:25.586Z,100544.34
2023-05-20T03:20:52.261Z,100550.09
2023-05-20T03:23:18.941Z,100556.59
2023-05-20T03:25:45.610Z,100546.50
2023-05-20T03:28:12.312Z,100550.53
2023-05-20T03:30:39.357Z,100550.09
2023-05-20T03:33:06.102Z,100554.22
2023-05-20T03:35:33.090Z,100555.41
2023-05-20T03:38:02.949Z,100552.53
2023-05-20T03:40:29.679Z,100557.88
2023-05-20T03:42:56.405Z,100557.31
2023-05-20T03:45:23.055Z,100552.16
2023-05-20T03:47:49.867Z,100549.59
2023-05-20T03:50:16.576Z,100554.56
2023-05-20T03:52:43.319Z,100551.22
2023-05-20T03:55:10.246Z,100549.38
2023-05-20T03:57:36.985Z,100553.44
2023-05-20T04:00:08.052Z,100554.47
2023-05-20T04:02:34.913Z,100552.06
2023-05-20T04:05:01.730Z,100562.91
2023-05-20T04:07:28.410Z,100562.59
2023-05-20T04:09:55.050Z,100564.59
2023-05-20T04:12:23.259Z,100559.50
2023-05-20T04:14:49.930Z,100567.13
2023-05-20T04:17:16.599Z,100579.88
2023-05-20T04:19:43.438Z,100576.41
2023-05-20T04:22:10.081Z,100579.88
2023-05-20T04:24:36.739Z,100579.16
2023-05-20T04:27:03.663Z,100570.56
2023-05-20T04:29:30.261Z,100575.81
2023-05-20T04:31:56.908Z,100586.34
2023-05-20T04:34:23.576Z,100591.03
2023-05-20T04:36:50.277Z,100591.31
2023-05-20T04:39:16.909Z,100591.06
2023-05-20T04:41:43.643Z,100592.44
2023-05-20T04:44:10.562Z,100583.00
2023-05-20T04:46:37.275Z,100590.97
2023-05-20T04:49:04.003Z,100596.94
2023-05-20T04:51:30.654Z,100595.00
2023-05-20T04:53:57.396Z,100598.25
2023-05-20T04:56:24.231Z,100599.22
2023-05-20T04:58:50.863Z,100599.56
2023-05-20T05:01:17.550Z,100600.78
2023-05-20T05:03:44.303Z,100591.53
2023-05-20T05:06:10.922Z,100589.69
2023-05-20T05:08:37.660Z,100583.16
2023-05-20T05:11:05.993Z,100588.88
2023-05-20T05:13:32.718Z,100584.59
2023-05-20T05:16:00.436Z,100587.69
2023-05-20T05:18:27.427Z,100590.88
2023-05-20T05:21:04.212Z,100594.66
2023-05-20T05:23:31.571Z,100594.78
2023-05-20T05:26:01.348Z,100593.72
2023-05-20T05:28:27.995Z,100585.22
2023-05-20T05:30:55.925Z,100584.50
2023-05-20T05:33:22.964Z,100586.84
2023-05-20T05:35:50.792Z,100581.66
2023-05-20T05:38:17.476Z,100594.69
2023-05-20T05:40:44.241Z,100589.69
2023-05-20T05:43:10.921Z,100588.09
2023-05-20T05:45:37.741Z,100587.34
2023-05-20T05:48:04.481Z,100586.16
2023-05-20T05:50:31.183Z,100594.66
2023-05-20T05:52:57.826Z,100600.69
2023-05-20T05:55:24.499Z,100593.81
2023-05-20T05:57:51.298Z,100587.91
2023-05-20T06:00:18.184Z,100594.56
2023-05-20T06:02:45.822Z,100592.34
2023-05-20T06:05:12.658Z,100598.91
2023-05-20T06:07:41.460Z,100595.28
2023-05-20T06:10:08.568Z,100594.53
2023-05-20T06:12:35.162Z,100595.28
2023-05-20T06:15:01.930Z,100595.31
2023-05-20T06:17:28.692Z,100600.66
2023-05-20T06:19:55.596Z,100604.25
2023-05-20T06:22:24.306Z,100603.56
2023-05-20T06:24:50.945Z,100601.03
2023-05-20T06:27:17.658Z,100598.47
2023-05-20T06:29:44.403Z,100594.16
2023-05-20T06:32:11.125Z,100599.34
2023-05-20T06:34:38.330Z,100603.50
2023-05-20T06:37:05.194Z,100603.91
2023-05-20T06:39:31.848Z,100600.94
2023-05-20T06:41:58.641Z,100605.09
2023-05-20T06:44:25.287Z,100611.03
2023-05-20T06:46:52.013Z,100608.97
2023-05-20T06:49:18.702Z,100603.81
2023-05-20T06:51:45.328Z,100603.66
2023-05-20T06:54:11.992Z,100591.19
2023-05-20T06:56:38.628Z,100603.66
2023-05-20T06:59:05.280Z,100598.19
2023-05-20T07:01:31.951Z,100591.59
2023-05-20T07:03:58.578Z,100587.53
2023-05-20T07:06:25.235Z,100585.63
2023-05-20T07:08:51.962Z,100587.97
2023-05-20T07:11:18.636Z,100593.56
2023-05-20T07:13:45.342Z,100590.19
2023-05-20T07:16:12.027Z,100598.78
2023-05-20T07:18:38.775Z,100583.09
2023-05-20T07:21:05.506Z,100582.94
2023-05-20T07:23:32.156Z,100588.78
2023-05-20T07:25:58.858Z,100579.91
2023-05-20T07:28:25.561Z,100578.44
2023-05-20T07:30:53.655Z,100581.78
2023-05-20T07:33:21.578Z,100579.31
2023-05-20T07:35:49.018Z,100584.72
2023-05-20T07:38:15.705Z,100585.06
2023-05-20T07:40:42.361Z,100583.13
2023-05-20T07:43:09.545Z,100587.00
2023-05-20T07:45:36.780Z,100590.25
2023-05-20T07:48:04.705Z,100585.22
2023-05-20T07:50:31.390Z,100586.25
2023-05-20T07:52:58.123Z,100577.06
2023-05-20T07:55:24.852Z,100580.31
2023-05-20T07:57:51.646Z,100578.56
2023-05-20T08:00:18.527Z,100574.06
2023-05-20T08:02:45.405Z,100571.97
2023-05-20T08:05:12.197Z,100578.44
2023-05-20T08:07:38.910Z,100573.66
2023-05-20T08:10:06.259Z,100567.22
2023-05-20T08:12:32.894Z,100561.47
2023-05-20T08:14:59.531Z,100571.22
2023-05-20T08:17:26.293Z,100567.69
2023-05-20T08:19:53.086Z,100569.59
2023-05-20T08:22:19.778Z,100575.59
2023-05-20T08:24:46.458Z,100568.31
2023-05-20T08:27:13.100Z,100563.31
2023-05-20T08:29:39.911Z,100556.06
2023-05-20T08:32:06.866Z,100564.16
2023-05-20T08:34:33.503Z,100559.25
2023-05-20T08:37:00.178Z,100559.31
2023-05-20T08:39:26.997Z,100561.94
2023-05-20T08:41:53.849Z,100560.44
2023-05-20T08:44:22.026Z,100552.94
2023-05-20T08:46:48.885Z,100555.69
2023-05-20T08:49:15.718Z,100549.88
2023-05-20T08:51:42.401Z,100552.34
2023-05-20T08:54:09.883Z,100547.44
2023-05-20T08:56:36.878Z,100549.09
2023-05-20T08:59:04.284Z,100543.16
2023-05-20T09:01:31.178Z,100542.75
2023-05-20T09:03:57.865Z,100540.75
2023-05-20T09:06:24.612Z,100542.34
2023-05-20T09:08:51.459Z,100532.34
2023-05-20T09:11:19.218Z,100530.28
2023-05-20T09:13:45.890Z,100527.72
2023-05-20T09:16:12.830Z,100536.13
2023-05-20T09:18:40.456Z,100530.44
2023-05-20T09:21:07.232Z,100538.00
2023-05-20T09:23:37.335Z,100524.06
2023-05-20T09:26:04.190Z,100526.19
2023-05-20T09:28:30.835Z,100522.19
2023-05-20T09:31:00.898Z,100518.84
2023-05-20T09:33:29.464Z,100522.91
2023-05-20T09:36:03.885Z,100518.06
2023-05-20T09:38:34.955Z,100511.94
2023-05-20T09:41:07.176Z,100503.44
2023-05-20T09:43:35.066Z,100496.75
2023-05-20T09:46:05.815Z,100498.88
2023-05-20T09:48:34.364Z,100490.03
2023-05-20T09:51:01.668Z,100493.09
2023-05-20T09:53:28.888Z,100482.72
2023-05-20T09:55:56.200Z,100484.91
2023-05-20T09:58:23.429Z,100487.84
2023-05-20T10:00:50.176Z,100489.06
2023-05-20T10:03:18.658Z,100473.38
2023-05-20T10:06:16.223Z,100477.63
2023-05-20T10:08:42.961Z,100476.78
2023-05-20T10:11:37.536Z,100475.19
2023-05-20T10:14:30.983Z,100473.38
2023-05-20T10:17:09.728Z,100468.59
2023-05-20T10:19:36.367Z,100470.84
2023-05-20T10:22:04.264Z,100469.09
2023-05-20T10:24:33.135Z,100466.41
2023-05-20T10:27:02.543Z,100460.09
2023-05-20T10:29:29.679Z,100457.84
2023-05-20T10:31:56.478Z,100452.81
2023-05-20T10:34:23.632Z,100448.28
2023-05-20T10:36:56.038Z,100445.34
2023-05-20T10:39:30.371Z,100450.66
2023-05-20T10:42:11.194Z,100445.94
2023-05-20T10:44:44.846Z,100443.81
2023-05-20T10:49:46.582Z,100442.31
2023-05-20T10:52:14.007Z,100437.44
2023-05-20T10:54:45.074Z,100423.84
2023-05-20T10:57:11.780Z,100435.59
2023-05-20T10:59:38.823Z,100424.63
2023-05-20T11:02:05.725Z,100429.25
2023-05-20T11:04:32.784Z,100425.63
2023-05-20T11:06:59.517Z,100423.06
2023-05-20T11:09:26.152Z,100415.63
2023-05-20T11:11:54.444Z,100415.78
2023-05-20T11:14:22.218Z,100422.69
2023-05-20T11:16:53.440Z,100419.66
2023-05-20T11:19:21.640Z,100413.84
2023-05-20T11:21:48.951Z,100415.84
2023-05-20T11:24:23.552Z,100423.94
2023-05-20T11:26:50.737Z,100415.75
2023-05-20T11:29:18.138Z,100404.63
2023-05-20T11:31:44.952Z,100412.63
2023-05-20T11:34:11.600Z,100409.44
2023-05-20T11:36:44.322Z,100401.94
2023-05-20T11:39:12.253Z,100413.75
2023-05-20T11:41:39.253Z,100399.81
2023-05-20T11:44:10.378Z,100413.78
2023-05-20T11:46:42.500Z,100402.44
2023-05-20T11:49:09.515Z,100397.31
2023-05-20T11:51:38.329Z,100400.09
2023-05-20T11:54:06.921Z,100400.97
2023-05-20T11:56:34.971Z,100403.28
2023-05-20T11:59:01.821Z,100400.31
2023-05-20T12:01:33.201Z,100407.59
2023-05-20T12:04:00.335Z,100401.91
2023-05-20T12:06:27.855Z,100394.84
2023-05-20T12:08:56.892Z,100390.06
2023-05-20T12:11:23.562Z,100393.44
2023-05-20T12:13:50.217Z,100387.53
2023-05-20T12:16:16.895Z,100390.66
2023-05-20T12:18:43.706Z,100387.53
2023-05-20T12:21:10.418Z,100389.22
2023-05-20T12:23:37.025Z,100383.41
2023-05-20T12:26:03.725Z,100394.16
2023-05-20T12:28:30.336Z,100382.69
2023-05-20T12:30:57.220Z,100382.84
2023-05-20T12:33:23.846Z,100380.56
2023-05-20T12:35:50.488Z,100379.59
2023-05-20T12:38:17.240Z,100377.50
2023-05-20T12:40:43.880Z,100376.47
2023-05-20T12:43:10.587Z,100372.94
2023-05-20T12:45:37.279Z,100370.09
2023-05-20T12:48:04.659Z,100366.09
2023-05-20T12:50:31.330Z,100366.25
2023-05-20T12:52:57.971Z,100360.28
2023-05-20T12:55:24.853Z,100364.97
2023-05-20T12:57:54.726Z,100371.66
2023-05-20T13:00:21.356Z,100361.44
2023-05-20T13:02:48.227Z,100368.25
2023-05-20T13:05:15.030Z,100351.03
2023-05-20T13:07:42.861Z,100348.09
2023-05-20T13:10:09.848Z,100354.03
2023-05-20T13:12:36.746Z,100355.44
2023-05-20T13:15:04.599Z,100343.78
2023-05-20T13:17:31.334Z,100338.25
2023-05-20T13:19:57.959Z,100339.81
2023-05-20T13:22:24.625Z,100340.66
2023-05-20T13:24:51.276Z,100334.03
2023-05-20T13:27:20.730Z,100333.00
2023-05-20T13:29:47.447Z,100333.41
2023-05-20T13:32:14.208Z,100327.03
2023-05-20T13:34:41.052Z,100320.63
2023-05-20T13:37:07.784Z,100311.31
2023-05-20T13:39:34.451Z,100312.66
2023-05-20T13:42:01.160Z,100315.13
2023-05-20T13:44:27.828Z,100323.50
2023-05-20T13:46:54.622Z,100324.06
2023-05-20T13:49:21.948Z,100310.69
2023-05-20T13:51:48.742Z,100310.66
2023-05-20T13:54:15.792Z,100313.94
2023-05-20T13:56:42.565Z,100317.22
2023-05-20T13:59:09.312Z,100307.84
2023-05-20T14:01:36.386Z,100308.13
2023-05-20T14:04:03.831Z,100297.69
2023-05-20T14:06:30.577Z,100299.22
2023-05-20T14:08:57.623Z,100301.38
2023-05-20T14:11:24.341Z,100295.41
2023-05-20T14:13:51.093Z,100282.66
2023-05-20T14:16:17.792Z,100288.91
2023-05-20T14:18:44.576Z,100298.00
2023-05-20T14:21:11.967Z,100284.94
2023-05-20T14:23:39.981Z,100291.50
2023-05-20T14:26:06.739Z,100278.69
2023-05-20T14:28:33.371Z,100289.75
2023-05-20T14:31:00.067Z,100284.19
2023-05-20T14:33:26.778Z,100277.66
2023-05-20T14:35:53.543Z,100277.84
2023-05-20T14:38:20.539Z,100268.13
2023-05-20T14:40:47.164Z,100273.53
2023-05-20T14:43:13.813Z,100269.16
2023-05-20T14:45:40.613Z,100272.47
2023-05-20T14:48:07.351Z,100267.44
2023-05-20T14:50:37.271Z,100271.38
2023-05-20T14:53:04.182Z,100276.97
2023-05-20T14:55:30.829Z,100271.56
2023-05-20T14:57:57.860Z,100269.28
2023-05-20T15:00:24.509Z,100268.75
2023-05-20T15:02:51.291Z,100267.72
2023-05-20T15:05:18.089Z,100269.78
2023-05-20T15:07:46.802Z,100264.97
2023-05-20T15:10:13.847Z,100264.75
2023-05-20T15:12:40.520Z,100259.94
2023-05-20T15:15:07.541Z,100264.03
2023-05-20T15:17:34.272Z,100256.22
2023-05-20T15:20:01.394Z,100249.75
2023-05-20T15:22:28.316Z,100253.78
2023-05-20T15:24:54.966Z,100253.97
2023-05-20T15:27:21.737Z,100248.13
2023-05-20T15:29:48.359Z,100246.34
2023-05-20T15:32:15.632Z,100237.69
2023-05-20T15:34:44.841Z,100240.59
2023-05-20T15:37:11.685Z,100236.28
2023-05-20T15:39:38.617Z,100242.13
2023-05-20T15:42:05.445Z,100232.69
2023-05-20T15:44:32.530Z,100231.84
2023-05-20T15:46:59.239Z,100230.59
2023-05-20T15:49:26.017Z,100230.53
2023-05-20T15:52:02.987Z,100234.22
2023-05-20T15:54:30.940Z,100225.47
2023-05-20T15:56:57.700Z,100225.03
2023-05-20T15:59:24.538Z,100231.47
2023-05-20T16:01:51.243Z,100228.41
2023-05-20T16:04:19.618Z,100234.84
2023-05-20T16:06:47.166Z,100227.25
2023-05-20T16:09:13.813Z,100227.81
2023-05-20T16:11:40.471Z,100229.25
2023-05-20T16:14:07.200Z,100227.69
2023-05-20T16:16:35.808Z,100223.34
2023-05-20T16:19:02.979Z,100220.25
2023-05-20T16:21:29.697Z,100216.25
2023-05-20T16:23:56.390Z,100213.56
2023-05-20T16:26:23.177Z,100217.94
2023-05-20T16:28:49.924Z,100218.09
2023-05-20T16:31:16.640Z,100225.28
2023-05-20T16:33:43.299Z,100219.56
2023-05-20T16:36:09.970Z,100224.16
2023-05-20T16:38:36.653Z,100217.94
2023-05-20T16:41:03.287Z,100213.66
2023-05-20T16:43:29.976Z,100221.47
2023-05-20T16:45:56.646Z,100227.97
2023-05-20T16:48:23.266Z,100230.44
2023-05-20T16:50:49.985Z,100229.88
2023-05-20T16:53:16.818Z,100227.03
2023-05-20T16:55:43.537Z,100224.16
2023-05-20T16:58:10.234Z,100219.19
2023-05-20T17:00:36.989Z,100219.47
2023-05-20T17:03:04.146Z,100225.31
2023-05-20T17:05:30.841Z,100228.00
2023-05-20T17:07:57.448Z,100230.53
2023-05-20T17:10:24.114Z,100231.34
2023-05-20T17:12:50.914Z,100231.25
2023-05-20T17:15:17.721Z,100232.41
2023-05-20T17:17:44.485Z,100241.00
2023-05-20T17:20:11.509Z,100235.88
2023-05-20T17:22:38.160Z,100240.78
2023-05-20T17:25:05.687Z,100241.75
2023-05-20T17:27:32.343Z,100248.81
2023-05-20T17:29:59.029Z,100250.66
2023-05-20T17:32:25.743Z,100241.47
2023-05-20T17:34:54.834Z,100241.69
2023-05-20T17:37:21.476Z,100244.63
2023-05-20T17:39:48.115Z,100240.00
2023-05-20T17:42:14.879Z,100237.69
2023-05-20T17:44:41.543Z,100233.59
2023-05-20T17:47:08.301Z,100238.09
2023-05-20T17:49:34.979Z,100238.59
2023-05-20T17:52:01.616Z,100242.97
2023-05-20T17:54:28.303Z,100243.38
2023-05-20T17:56:54.995Z,100239.19
2023-05-20T17:59:21.595Z,100236.16
2023-05-20T18:01:48.621Z,100223.22
2023-05-20T18:04:15.294Z,100238.00
2023-05-20T18:06:42.417Z,100231.63
2023-05-20T18:09:09.246Z,100232.00
2023-05-20T18:11:38.051Z,100228.06
2023-05-20T18:14:04.714Z,100228.56
2023-05-20T18:16:31.688Z,100226.66
2023-05-20T18:18:58.711Z,100224.34
2023-05-20T18:21:25.595Z,100226.50
2023-05-20T18:23:52.228Z,100225.16
2023-05-20T18:26:19.054Z,100231.69
2023-05-20T18:28:45.766Z,100239.69
2023-05-20T18:31:12.657Z,100232.09
2023-05-20T18:33:39.421Z,100239.69
2023-05-20T18:36:06.298Z,100230.44
2023-05-20T18:38:33.194Z,100236.97
2023-05-20T18:41:00.034Z,100239.03
2023-05-20T18:43:29.276Z,100237.78
2023-05-20T18:45:56.183Z,100238.41
2023-05-20T18:48:26.743Z,100242.28
2023-05-20T18:50:54.786Z,100239.09
2023-05-20T18:53:21.658Z,100237.47
2023-05-20T18:55:48.451Z,100241.47
2023-05-20T18:58:15.365Z,100242.63
2023-05-20T19:00:42.327Z,100239.53
2023-05-20T19:03:09.124Z,100238.91
2023-05-20T19:05:36.239Z,100245.84
2023-05-20T19:08:03.392Z,100241.16
2023-05-20T19:10:30.014Z,100246.19
2023-05-20T19:12:56.842Z,100239.84
2023-05-20T19:15:23.572Z,100244.69
2023-05-20T19:17:51.688Z,100247.88
2023-05-20T19:20:18.411Z,100248.75
2023-05-20T19:22:45.034Z,100254.53
2023-05-20T19:25:11.744Z,100250.91
2023-05-20T19:27:38.433Z,100253.56
2023-05-20T19:30:06.190Z,100256.88
2023-05-20T19:32:33.942Z,100259.09
2023-05-20T19:35:00.705Z,100263.91
2023-05-20T19:37:27.457Z,100260.50
2023-05-20T19:39:54.178Z,100255.19
2023-05-20T19:42:21.094Z,100257.63
2023-05-20T19:44:48.851Z,100263.59
2023-05-20T19:47:15.805Z,100267.22
2023-05-20T19:49:42.455Z,100261.53
2023-05-20T19:52:09.113Z,100269.78
2023-05-20T19:54:35.730Z,100255.69
2023-05-20T19:57:02.379Z,100254.09
2023-05-20T19:59:28.999Z,100254.44
2023-05-20T20:01:55.703Z,100257.84
2023-05-20T20:04:22.402Z,100253.13
2023-05-20T20:06:49.411Z,100254.34
2023-05-20T20:09:16.040Z,100258.66
2023-05-20T20:11:42.746Z,100263.06
2023-05-20T20:14:09.524Z,100254.44
2023-05-20T20:16:36.203Z,100265.31
2023-05-20T20:19:02.987Z,100265.72
2023-05-20T20:21:29.715Z,100265.72
2023-05-20T20:23:56.362Z,100257.47
2023-05-20T20:26:23.022Z,100249.91
2023-05-20T20:28:49.662Z,100251.63
2023-05-20T20:31:16.305Z,100258.09
2023-05-20T20:33:43.579Z,100259.69
2023-05-20T20:36:10.222Z,100254.06
2023-05-20T20:38:36.908Z,100254.59
2023-05-20T20:41:03.546Z,100254.03
2023-05-20T20:43:30.329Z,100253.75
2023-05-20T20:45:57.011Z,100248.00
2023-05-20T20:48:23.845Z,100250.69
2023-05-20T20:50:50.505Z,100251.16
2023-05-20T20:53:17.204Z,100250.69
2023-05-20T20:55:43.996Z,100250.59
2023-05-20T20:58:10.675Z,100246.00
2023-05-20T21:00:37.771Z,100246.09
2023-05-20T21:03:04.591Z,100243.63
2023-05-20T21:05:31.263Z,100245.72
2023-05-20T21:07:57.926Z,100247.81
2023-05-20T21:10:25.486Z,100249.59
2023-05-20T21:12:52.302Z,100240.19
2023-05-20T21:15:18.939Z,100241.81
2023-05-20T21:17:45.642Z,100248.94
2023-05-20T21:20:12.579Z,100243.03
2023-05-20T21:22:39.218Z,100249.09
2023-05-20T21:25:06.561Z,100239.81
2023-05-20T21:27:33.289Z,100235.34
2023-05-20T21:30:00.050Z,100239.63
2023-05-20T21:32:26.747Z,100235.03
2023-05-20T21:34:53.503Z,100238.16
2023-05-20T21:37:20.156Z,100237.03
2023-05-20T21:39:46.903Z,100233.81
2023-05-20T21:42:13.619Z,100231.53
2023-05-20T21:44:42.795Z,100233.78
2023-05-20T21:47:09.652Z,100236.06
2023-05-20T21:49:36.335Z,100229.09
2023-05-20T21:52:02.936Z,100227.53
2023-05-20T21:54:29.598Z,100232.69
2023-05-20T21:56:56.242Z,100226.16
2023-05-20T21:59:22.905Z,100232.78
2023-05-20T22:01:49.681Z,100225.09
2023-05-20T22:04:16.457Z,100239.31
2023-05-20T22:06:43.118Z,100234.16
2023-05-20T22:09:09.940Z,100233.56
2023-05-20T22:11:36.609Z,100228.59
2023-05-20T22:14:03.613Z,100231.69
2023-05-20T22:16:30.300Z,100236.63
2023-05-20T22:18:56.971Z,100231.13
2023-05-20T22:21:23.723Z,100237.22
2023-05-20T22:23:50.404Z,100235.53
2023-05-20T22:26:17.042Z,100246.75
2023-05-20T22:28:43.801Z,100242.38
2023-05-20T22:31:10.468Z,100233.78
2023-05-20T22:33:37.185Z,100242.47
2023-05-20T22:36:03.986Z,100235.66
2023-05-20T22:38:30.636Z,100244.19
2023-05-20T22:40:57.261Z,100238.41
2023-05-20T22:43:23.877Z,100247.63
2023-05-20T22:45:50.710Z,100243.50
2023-05-20T22:48:17.468Z,100249.69
2023-05-20T22:50:44.154Z,100244.97
2023-05-20T22:53:10.775Z,100250.28
2023-05-20T22:55:37.945Z,100255.78
2023-05-20T22:58:04.788Z,100259.44
2023-05-20T23:00:31.430Z,100262.47
2023-05-20T23:02:58.144Z,100255.44
2023-05-20T23:05:24.789Z,100262.16
2023-05-20T23:07:51.945Z,100252.84
2023-05-20T23:10:19.483Z,100257.91
2023-05-20T23:12:46.207Z,100249.47
2023-05-20T23:15:12.890Z,100255.75
2023-05-20T23:17:39.738Z,100246.97
2023-05-20T23:20:07.530Z,100254.75
2023-05-20T23:22:34.178Z,100246.47
2023-05-20T23:25:03.833Z,100248.38
2023-05-20T23:27:30.484Z,100244.50
2023-05-20T23:29:57.299Z,100245.84
2023-05-20T23:32:24.643Z,100246.03
2023-05-20T23:34:51.920Z,100246.03
2023-05-20T23:37:19.166Z,100243.31
2023-05-20T23:39:46.505Z,100248.59
2023-05-20T23:42:13.259Z,100239.69
2023-05-20T23:44:40.006Z,100245.06
2023-05-20T23:47:06.659Z,100233.03
2023-05-20T23:49:34.111Z,100243.06
2023-05-20T23:52:00.775Z,100234.84
2023-05-20T23:54:27.484Z,100231.97
2023-05-20T23:56:54.177Z,100236.34
2023-05-20T23:59:20.917Z,100239.13
